sensor_id;sensor_type;location;lat;lon;timestamp;P1;durP1;ratioP1;P2;durP2;ratioP2
13795;SDS011;40911;51.552;9.874;2023-04-03T00:00:36;6.00;;;2.90;;
13795;SDS011;40911;51.552;9.874;2023-04-03T00:02:57;6.95;;;3.10;;
13795;SDS011;40911;51.552;9.874;2023-04-03T00:05:19;3.63;;;3.03;;
13795;SDS011;40911;51.552;9.874;2023-04-03T00:07:41;4.10;;;2.90;;
13795;SDS011;40911;51.552;9.874;2023-04-03T00:10:02;4.68;;;2.70;;
13795;SDS011;40911;51.552;9.874;2023-04-03T00:12:26;4.60;;;3.03;;
13795;SDS011;40911;51.552;9.874;2023-04-03T00:14:48;3.22;;;2.92;;
13795;SDS011;40911;51.552;9.874;2023-04-03T00:17:09;3.75;;;2.78;;
13795;SDS011;40911;51.552;9.874;2023-04-03T00:19:31;3.75;;;3.00;;
13795;SDS011;40911;51.552;9.874;2023-04-03T00:21:53;6.32;;;3.03;;
13795;SDS011;40911;51.552;9.874;2023-04-03T00:24:14;7.43;;;3.38;;
13795;SDS011;40911;51.552;9.874;2023-04-03T00:26:36;4.95;;;3.13;;
13795;SDS011;40911;51.552;9.874;2023-04-03T00:28:59;4.70;;;3.13;;
13795;SDS011;40911;51.552;9.874;2023-04-03T00:31:20;5.07;;;3.25;;
13795;SDS011;40911;51.552;9.874;2023-04-03T00:33:42;3.10;;;2.85;;
13795;SDS011;40911;51.552;9.874;2023-04-03T00:38:28;6.05;;;3.42;;
13795;SDS011;40911;51.552;9.874;2023-04-03T00:40:50;4.28;;;3.10;;
13795;SDS011;40911;51.552;9.874;2023-04-03T00:43:13;5.43;;;3.05;;
13795;SDS011;40911;51.552;9.874;2023-04-03T00:45:38;3.50;;;2.95;;
13795;SDS011;40911;51.552;9.874;2023-04-03T00:48:01;4.75;;;3.20;;
13795;SDS011;40911;51.552;9.874;2023-04-03T00:50:27;5.18;;;3.05;;
13795;SDS011;40911;51.552;9.874;2023-04-03T00:52:49;5.82;;;2.92;;
13795;SDS011;40911;51.552;9.874;2023-04-03T00:55:11;3.90;;;2.92;;
13795;SDS011;40911;51.552;9.874;2023-04-03T00:57:34;4.90;;;3.10;;
13795;SDS011;40911;51.552;9.874;2023-04-03T01:02:22;5.53;;;3.10;;
13795;SDS011;40911;51.552;9.874;2023-04-03T01:04:44;3.42;;;2.90;;
13795;SDS011;40911;51.552;9.874;2023-04-03T01:07:08;3.08;;;2.70;;
13795;SDS011;40911;51.552;9.874;2023-04-03T01:09:31;3.88;;;3.30;;
13795;SDS011;40911;51.552;9.874;2023-04-03T01:11:53;4.88;;;3.15;;
13795;SDS011;40911;51.552;9.874;2023-04-03T01:16:37;4.15;;;2.95;;
13795;SDS011;40911;51.552;9.874;2023-04-03T01:19:01;4.80;;;2.95;;
13795;SDS011;40911;51.552;9.874;2023-04-03T01:24:31;4.68;;;3.47;;
13795;SDS011;40911;51.552;9.874;2023-04-03T01:26:55;5.85;;;3.05;;
13795;SDS011;40911;51.552;9.874;2023-04-03T01:31:47;3.88;;;3.00;;
13795;SDS011;40911;51.552;9.874;2023-04-03T01:34:10;5.13;;;3.70;;
13795;SDS011;40911;51.552;9.874;2023-04-03T01:36:31;5.03;;;3.20;;
13795;SDS011;40911;51.552;9.874;2023-04-03T01:38:53;5.60;;;3.28;;
13795;SDS011;40911;51.552;9.874;2023-04-03T01:41:16;5.25;;;3.20;;
13795;SDS011;40911;51.552;9.874;2023-04-03T01:43:37;8.10;;;3.45;;
13795;SDS011;40911;51.552;9.874;2023-04-03T01:48:22;5.65;;;3.28;;
13795;SDS011;40911;51.552;9.874;2023-04-03T01:50:43;6.40;;;3.80;;
13795;SDS011;40911;51.552;9.874;2023-04-03T01:53:05;5.10;;;3.92;;
13795;SDS011;40911;51.552;9.874;2023-04-03T01:57:48;3.53;;;3.30;;
13795;SDS011;40911;51.552;9.874;2023-04-03T02:00:10;6.75;;;3.50;;
13795;SDS011;40911;51.552;9.874;2023-04-03T02:02:33;3.40;;;3.00;;
13795;SDS011;40911;51.552;9.874;2023-04-03T02:04:56;5.07;;;3.20;;
13795;SDS011;40911;51.552;9.874;2023-04-03T02:07:18;4.80;;;3.30;;
13795;SDS011;40911;51.552;9.874;2023-04-03T02:09:39;3.80;;;3.38;;
13795;SDS011;40911;51.552;9.874;2023-04-03T02:12:01;5.35;;;3.13;;
13795;SDS011;40911;51.552;9.874;2023-04-03T02:14:22;5.03;;;3.58;;
13795;SDS011;40911;51.552;9.874;2023-04-03T02:19:06;6.18;;;3.30;;
13795;SDS011;40911;51.552;9.874;2023-04-03T02:23:50;5.22;;;3.20;;
13795;SDS011;40911;51.552;9.874;2023-04-03T02:26:12;7.40;;;3.60;;
13795;SDS011;40911;51.552;9.874;2023-04-03T02:28:36;5.82;;;3.38;;
13795;SDS011;40911;51.552;9.874;2023-04-03T02:30:57;3.90;;;3.20;;
13795;SDS011;40911;51.552;9.874;2023-04-03T02:33:19;5.57;;;3.75;;
13795;SDS011;40911;51.552;9.874;2023-04-03T02:35:40;4.13;;;3.05;;
13795;SDS011;40911;51.552;9.874;2023-04-03T02:38:03;8.05;;;4.13;;
13795;SDS011;40911;51.552;9.874;2023-04-03T02:40:25;5.15;;;3.70;;
13795;SDS011;40911;51.552;9.874;2023-04-03T02:42:47;5.30;;;3.35;;
13795;SDS011;40911;51.552;9.874;2023-04-03T02:45:09;3.50;;;3.20;;
13795;SDS011;40911;51.552;9.874;2023-04-03T02:47:31;4.07;;;3.25;;
13795;SDS011;40911;51.552;9.874;2023-04-03T02:49:52;5.22;;;3.92;;
13795;SDS011;40911;51.552;9.874;2023-04-03T02:52:14;4.25;;;3.40;;
13795;SDS011;40911;51.552;9.874;2023-04-03T02:54:37;8.98;;;3.70;;
13795;SDS011;40911;51.552;9.874;2023-04-03T02:56:59;8.05;;;3.47;;
13795;SDS011;40911;51.552;9.874;2023-04-03T02:59:20;4.93;;;3.53;;
13795;SDS011;40911;51.552;9.874;2023-04-03T03:01:42;6.93;;;3.70;;
13795;SDS011;40911;51.552;9.874;2023-04-03T03:04:04;6.72;;;3.42;;
13795;SDS011;40911;51.552;9.874;2023-04-03T03:06:25;6.53;;;3.47;;
13795;SDS011;40911;51.552;9.874;2023-04-03T03:08:47;6.63;;;3.40;;
13795;SDS011;40911;51.552;9.874;2023-04-03T03:11:10;11.30;;;3.55;;
13795;SDS011;40911;51.552;9.874;2023-04-03T03:13:32;6.50;;;3.45;;
13795;SDS011;40911;51.552;9.874;2023-04-03T03:15:54;4.40;;;3.50;;
13795;SDS011;40911;51.552;9.874;2023-04-03T03:18:16;5.80;;;3.40;;
13795;SDS011;40911;51.552;9.874;2023-04-03T03:20:37;5.55;;;3.80;;
13795;SDS011;40911;51.552;9.874;2023-04-03T03:22:59;5.65;;;3.65;;
13795;SDS011;40911;51.552;9.874;2023-04-03T03:25:21;4.40;;;3.38;;
13795;SDS011;40911;51.552;9.874;2023-04-03T03:27:44;6.75;;;3.40;;
13795;SDS011;40911;51.552;9.874;2023-04-03T03:30:06;7.32;;;4.03;;
13795;SDS011;40911;51.552;9.874;2023-04-03T03:32:28;6.43;;;3.60;;
13795;SDS011;40911;51.552;9.874;2023-04-03T03:34:50;7.97;;;3.75;;
13795;SDS011;40911;51.552;9.874;2023-04-03T03:37:11;9.38;;;3.92;;
13795;SDS011;40911;51.552;9.874;2023-04-03T03:39:33;4.75;;;3.30;;
13795;SDS011;40911;51.552;9.874;2023-04-03T03:44:17;4.20;;;3.35;;
13795;SDS011;40911;51.552;9.874;2023-04-03T03:46:39;4.97;;;3.88;;
13795;SDS011;40911;51.552;9.874;2023-04-03T03:49:00;5.75;;;3.53;;
13795;SDS011;40911;51.552;9.874;2023-04-03T03:51:22;3.85;;;3.35;;
13795;SDS011;40911;51.552;9.874;2023-04-03T03:53:44;4.55;;;3.53;;
13795;SDS011;40911;51.552;9.874;2023-04-03T03:56:05;4.53;;;3.42;;
13795;SDS011;40911;51.552;9.874;2023-04-03T03:58:27;4.30;;;3.35;;
13795;SDS011;40911;51.552;9.874;2023-04-03T04:03:12;8.48;;;4.15;;
13795;SDS011;40911;51.552;9.874;2023-04-03T04:05:33;4.95;;;3.58;;
13795;SDS011;40911;51.552;9.874;2023-04-03T04:07:55;5.00;;;3.78;;
13795;SDS011;40911;51.552;9.874;2023-04-03T04:10:17;4.93;;;3.67;;
13795;SDS011;40911;51.552;9.874;2023-04-03T04:12:38;3.70;;;3.40;;
13795;SDS011;40911;51.552;9.874;2023-04-03T04:15:00;4.90;;;3.60;;
13795;SDS011;40911;51.552;9.874;2023-04-03T04:17:23;7.13;;;3.72;;
13795;SDS011;40911;51.552;9.874;2023-04-03T04:19:45;8.07;;;3.88;;
13795;SDS011;40911;51.552;9.874;2023-04-03T04:22:07;8.75;;;3.65;;
13795;SDS011;40911;51.552;9.874;2023-04-03T04:24:29;4.47;;;3.83;;
13795;SDS011;40911;51.552;9.874;2023-04-03T04:26:51;4.00;;;3.65;;
13795;SDS011;40911;51.552;9.874;2023-04-03T04:29:13;4.93;;;3.92;;
13795;SDS011;40911;51.552;9.874;2023-04-03T04:31:34;8.05;;;4.00;;
13795;SDS011;40911;51.552;9.874;2023-04-03T04:33:57;4.00;;;3.65;;
13795;SDS011;40911;51.552;9.874;2023-04-03T04:36:19;7.70;;;3.75;;
13795;SDS011;40911;51.552;9.874;2023-04-03T04:38:41;5.00;;;3.80;;
13795;SDS011;40911;51.552;9.874;2023-04-03T04:41:02;6.50;;;3.88;;
13795;SDS011;40911;51.552;9.874;2023-04-03T04:43:24;3.97;;;3.60;;
13795;SDS011;40911;51.552;9.874;2023-04-03T04:45:46;6.78;;;4.10;;
13795;SDS011;40911;51.552;9.874;2023-04-03T04:50:30;4.20;;;3.83;;
13795;SDS011;40911;51.552;9.874;2023-04-03T04:52:52;7.70;;;3.95;;
13795;SDS011;40911;51.552;9.874;2023-04-03T04:55:14;4.05;;;3.63;;
13795;SDS011;40911;51.552;9.874;2023-04-03T04:59:58;7.50;;;3.97;;
13795;SDS011;40911;51.552;9.874;2023-04-03T05:02:20;6.57;;;4.40;;
13795;SDS011;40911;51.552;9.874;2023-04-03T05:04:41;4.50;;;3.80;;
13795;SDS011;40911;51.552;9.874;2023-04-03T05:07:04;5.53;;;4.07;;
13795;SDS011;40911;51.552;9.874;2023-04-03T05:09:26;4.63;;;3.80;;
13795;SDS011;40911;51.552;9.874;2023-04-03T05:11:47;8.40;;;4.40;;
13795;SDS011;40911;51.552;9.874;2023-04-03T05:14:09;4.40;;;4.00;;
13795;SDS011;40911;51.552;9.874;2023-04-03T05:16:31;10.63;;;3.80;;
13795;SDS011;40911;51.552;9.874;2023-04-03T05:18:52;5.70;;;4.53;;
13795;SDS011;40911;51.552;9.874;2023-04-03T05:21:14;6.28;;;4.05;;
13795;SDS011;40911;51.552;9.874;2023-04-03T05:23:37;6.97;;;3.63;;
13795;SDS011;40911;51.552;9.874;2023-04-03T05:25:58;6.80;;;4.00;;
13795;SDS011;40911;51.552;9.874;2023-04-03T05:28:20;5.63;;;4.13;;
13795;SDS011;40911;51.552;9.874;2023-04-03T05:33:03;7.00;;;3.90;;
13795;SDS011;40911;51.552;9.874;2023-04-03T05:35:25;5.93;;;3.80;;
13795;SDS011;40911;51.552;9.874;2023-04-03T05:37:47;4.78;;;3.78;;
13795;SDS011;40911;51.552;9.874;2023-04-03T05:40:10;11.77;;;4.28;;
13795;SDS011;40911;51.552;9.874;2023-04-03T05:42:32;5.20;;;3.67;;
13795;SDS011;40911;51.552;9.874;2023-04-03T05:44:53;5.00;;;3.60;;
13795;SDS011;40911;51.552;9.874;2023-04-03T05:47:15;3.88;;;3.53;;
13795;SDS011;40911;51.552;9.874;2023-04-03T05:52:01;4.45;;;3.78;;
13795;SDS011;40911;51.552;9.874;2023-04-03T05:54:23;4.43;;;3.90;;
13795;SDS011;40911;51.552;9.874;2023-04-03T05:56:47;5.90;;;4.10;;
13795;SDS011;40911;51.552;9.874;2023-04-03T05:59:08;4.07;;;3.55;;
13795;SDS011;40911;51.552;9.874;2023-04-03T06:01:31;7.80;;;4.00;;
13795;SDS011;40911;51.552;9.874;2023-04-03T06:03:52;4.45;;;4.05;;
13795;SDS011;40911;51.552;9.874;2023-04-03T06:06:14;6.13;;;4.43;;
13795;SDS011;40911;51.552;9.874;2023-04-03T06:08:36;7.60;;;4.55;;
13795;SDS011;40911;51.552;9.874;2023-04-03T06:10:58;6.47;;;3.92;;
13795;SDS011;40911;51.552;9.874;2023-04-03T06:13:21;5.35;;;4.35;;
13795;SDS011;40911;51.552;9.874;2023-04-03T06:15:43;8.02;;;4.10;;
13795;SDS011;40911;51.552;9.874;2023-04-03T06:18:06;5.97;;;3.80;;
13795;SDS011;40911;51.552;9.874;2023-04-03T06:20:28;7.72;;;4.25;;
13795;SDS011;40911;51.552;9.874;2023-04-03T06:22:51;7.78;;;4.05;;
13795;SDS011;40911;51.552;9.874;2023-04-03T06:25:12;5.22;;;3.72;;
13795;SDS011;40911;51.552;9.874;2023-04-03T06:29:57;4.43;;;3.53;;
13795;SDS011;40911;51.552;9.874;2023-04-03T06:32:18;5.10;;;3.40;;
13795;SDS011;40911;51.552;9.874;2023-04-03T06:34:40;5.97;;;3.60;;
13795;SDS011;40911;51.552;9.874;2023-04-03T06:37:02;7.65;;;3.38;;
13795;SDS011;40911;51.552;9.874;2023-04-03T06:39:24;6.00;;;3.53;;
13795;SDS011;40911;51.552;9.874;2023-04-03T06:41:46;3.65;;;3.28;;
13795;SDS011;40911;51.552;9.874;2023-04-03T06:44:07;6.72;;;3.67;;
13795;SDS011;40911;51.552;9.874;2023-04-03T06:46:32;3.58;;;3.30;;
13795;SDS011;40911;51.552;9.874;2023-04-03T06:48:53;4.85;;;3.20;;
13795;SDS011;40911;51.552;9.874;2023-04-03T06:51:17;6.63;;;3.20;;
13795;SDS011;40911;51.552;9.874;2023-04-03T06:53:40;4.13;;;3.55;;
13795;SDS011;40911;51.552;9.874;2023-04-03T06:56:02;5.30;;;3.60;;
13795;SDS011;40911;51.552;9.874;2023-04-03T06:58:24;5.30;;;3.42;;
13795;SDS011;40911;51.552;9.874;2023-04-03T07:00:45;8.40;;;4.07;;
13795;SDS011;40911;51.552;9.874;2023-04-03T07:03:08;5.57;;;3.33;;
13795;SDS011;40911;51.552;9.874;2023-04-03T07:05:30;3.60;;;3.20;;
13795;SDS011;40911;51.552;9.874;2023-04-03T07:07:52;4.10;;;3.35;;
13795;SDS011;40911;51.552;9.874;2023-04-03T07:12:35;8.00;;;3.33;;
13795;SDS011;40911;51.552;9.874;2023-04-03T07:14:57;3.92;;;3.03;;
13795;SDS011;40911;51.552;9.874;2023-04-03T07:19:42;4.32;;;3.03;;
13795;SDS011;40911;51.552;9.874;2023-04-03T07:22:03;3.90;;;3.33;;
13795;SDS011;40911;51.552;9.874;2023-04-03T07:24:25;6.93;;;3.63;;
13795;SDS011;40911;51.552;9.874;2023-04-03T07:29:10;6.50;;;3.80;;
13795;SDS011;40911;51.552;9.874;2023-04-03T07:31:31;4.63;;;3.40;;
13795;SDS011;40911;51.552;9.874;2023-04-03T07:33:53;6.03;;;3.38;;
13795;SDS011;40911;51.552;9.874;2023-04-03T07:38:39;6.65;;;3.35;;
13795;SDS011;40911;51.552;9.874;2023-04-03T07:43:22;5.97;;;2.95;;
13795;SDS011;40911;51.552;9.874;2023-04-03T07:45:45;5.43;;;3.10;;
13795;SDS011;40911;51.552;9.874;2023-04-03T07:48:09;4.00;;;2.80;;
13795;SDS011;40911;51.552;9.874;2023-04-03T07:50:31;5.43;;;3.10;;
13795;SDS011;40911;51.552;9.874;2023-04-03T07:52:54;8.35;;;3.10;;
13795;SDS011;40911;51.552;9.874;2023-04-03T07:55:17;5.63;;;2.90;;
13795;SDS011;40911;51.552;9.874;2023-04-03T07:57:39;6.47;;;3.85;;
13795;SDS011;40911;51.552;9.874;2023-04-03T08:00:01;3.25;;;2.95;;
13795;SDS011;40911;51.552;9.874;2023-04-03T08:02:23;6.43;;;2.90;;
13795;SDS011;40911;51.552;9.874;2023-04-03T08:04:44;4.03;;;2.92;;
13795;SDS011;40911;51.552;9.874;2023-04-03T08:07:06;3.35;;;2.50;;
13795;SDS011;40911;51.552;9.874;2023-04-03T08:09:29;6.55;;;2.80;;
13795;SDS011;40911;51.552;9.874;2023-04-03T08:11:51;4.20;;;2.80;;
13795;SDS011;40911;51.552;9.874;2023-04-03T08:14:13;5.20;;;3.60;;
13795;SDS011;40911;51.552;9.874;2023-04-03T08:16:38;3.58;;;2.50;;
13795;SDS011;40911;51.552;9.874;2023-04-03T08:19:00;3.72;;;2.70;;
13795;SDS011;40911;51.552;9.874;2023-04-03T08:21:21;6.10;;;3.00;;
13795;SDS011;40911;51.552;9.874;2023-04-03T08:26:07;3.55;;;2.78;;
13795;SDS011;40911;51.552;9.874;2023-04-03T08:28:29;5.70;;;3.35;;
13795;SDS011;40911;51.552;9.874;2023-04-03T08:30:50;4.97;;;3.00;;
13795;SDS011;40911;51.552;9.874;2023-04-03T08:33:14;4.68;;;3.28;;
13795;SDS011;40911;51.552;9.874;2023-04-03T08:35:38;6.78;;;3.28;;
13795;SDS011;40911;51.552;9.874;2023-04-03T08:38:00;4.40;;;2.90;;
13795;SDS011;40911;51.552;9.874;2023-04-03T08:40:22;4.38;;;2.53;;
13795;SDS011;40911;51.552;9.874;2023-04-03T08:42:51;3.08;;;2.78;;
13795;SDS011;40911;51.552;9.874;2023-04-03T08:45:26;4.40;;;2.60;;
13795;SDS011;40911;51.552;9.874;2023-04-03T08:48:04;4.50;;;2.80;;
13795;SDS011;40911;51.552;9.874;2023-04-03T08:50:29;5.13;;;2.97;;
13795;SDS011;40911;51.552;9.874;2023-04-03T08:52:55;4.88;;;2.88;;
13795;SDS011;40911;51.552;9.874;2023-04-03T08:55:22;3.67;;;2.80;;
13795;SDS011;40911;51.552;9.874;2023-04-03T08:57:45;2.60;;;2.40;;
13795;SDS011;40911;51.552;9.874;2023-04-03T09:00:16;4.63;;;2.78;;
13795;SDS011;40911;51.552;9.874;2023-04-03T09:02:41;3.90;;;2.43;;
13795;SDS011;40911;51.552;9.874;2023-04-03T09:05:08;3.55;;;2.63;;
13795;SDS011;40911;51.552;9.874;2023-04-03T09:07:35;5.53;;;2.60;;
13795;SDS011;40911;51.552;9.874;2023-04-03T09:10:00;2.72;;;2.47;;
13795;SDS011;40911;51.552;9.874;2023-04-03T09:12:24;4.57;;;2.90;;
13795;SDS011;40911;51.552;9.874;2023-04-03T09:14:50;5.15;;;2.50;;
13795;SDS011;40911;51.552;9.874;2023-04-03T09:19:49;4.57;;;3.10;;
13795;SDS011;40911;51.552;9.874;2023-04-03T09:22:18;4.55;;;2.42;;
13795;SDS011;40911;51.552;9.874;2023-04-03T09:24:43;4.63;;;2.58;;
13795;SDS011;40911;51.552;9.874;2023-04-03T09:27:07;2.60;;;2.40;;
13795;SDS011;40911;51.552;9.874;2023-04-03T09:29:31;4.45;;;2.67;;
13795;SDS011;40911;51.552;9.874;2023-04-03T09:31:59;5.22;;;2.72;;
13795;SDS011;40911;51.552;9.874;2023-04-03T09:34:24;4.72;;;3.08;;
13795;SDS011;40911;51.552;9.874;2023-04-03T09:36:49;4.18;;;3.10;;
13795;SDS011;40911;51.552;9.874;2023-04-03T09:39:13;8.13;;;2.65;;
13795;SDS011;40911;51.552;9.874;2023-04-03T09:41:36;2.92;;;2.72;;
13795;SDS011;40911;51.552;9.874;2023-04-03T09:46:28;3.00;;;2.65;;
13795;SDS011;40911;51.552;9.874;2023-04-03T09:48:51;2.65;;;2.50;;
13795;SDS011;40911;51.552;9.874;2023-04-03T09:51:17;4.10;;;2.58;;
13795;SDS011;40911;51.552;9.874;2023-04-03T09:53:40;3.08;;;2.58;;
13795;SDS011;40911;51.552;9.874;2023-04-03T09:56:03;5.20;;;2.40;;
13795;SDS011;40911;51.552;9.874;2023-04-03T09:58:40;4.10;;;2.50;;
13795;SDS011;40911;51.552;9.874;2023-04-03T10:01:04;3.17;;;2.50;;
13795;SDS011;40911;51.552;9.874;2023-04-03T10:03:28;2.67;;;2.40;;
13795;SDS011;40911;51.552;9.874;2023-04-03T10:05:50;2.30;;;2.10;;
13795;SDS011;40911;51.552;9.874;2023-04-03T10:08:21;3.97;;;2.60;;
13795;SDS011;40911;51.552;9.874;2023-04-03T10:10:46;6.33;;;2.40;;
13795;SDS011;40911;51.552;9.874;2023-04-03T10:13:10;7.00;;;3.80;;
13795;SDS011;40911;51.552;9.874;2023-04-03T10:15:35;15.70;;;11.02;;
13795;SDS011;40911;51.552;9.874;2023-04-03T10:18:02;29.15;;;15.68;;
13795;SDS011;40911;51.552;9.874;2023-04-03T10:20:30;8.85;;;4.90;;
13795;SDS011;40911;51.552;9.874;2023-04-03T10:23:00;3.90;;;2.83;;
13795;SDS011;40911;51.552;9.874;2023-04-03T10:25:34;4.97;;;4.05;;
13795;SDS011;40911;51.552;9.874;2023-04-03T10:28:03;3.17;;;2.75;;
13795;SDS011;40911;51.552;9.874;2023-04-03T10:30:32;3.10;;;2.50;;
13795;SDS011;40911;51.552;9.874;2023-04-03T10:33:01;4.05;;;2.67;;
13795;SDS011;40911;51.552;9.874;2023-04-03T10:35:37;5.88;;;3.05;;
13795;SDS011;40911;51.552;9.874;2023-04-03T10:38:08;6.10;;;2.90;;
13795;SDS011;40911;51.552;9.874;2023-04-03T10:40:37;5.88;;;2.70;;
13795;SDS011;40911;51.552;9.874;2023-04-03T10:43:08;3.88;;;2.33;;
13795;SDS011;40911;51.552;9.874;2023-04-03T10:45:46;9.95;;;4.80;;
13795;SDS011;40911;51.552;9.874;2023-04-03T10:48:18;9.68;;;5.28;;
13795;SDS011;40911;51.552;9.874;2023-04-03T10:50:51;9.98;;;4.40;;
13795;SDS011;40911;51.552;9.874;2023-04-03T10:53:20;10.80;;;4.75;;
13795;SDS011;40911;51.552;9.874;2023-04-03T10:55:56;4.38;;;3.58;;
13795;SDS011;40911;51.552;9.874;2023-04-03T10:58:28;4.25;;;2.83;;
13795;SDS011;40911;51.552;9.874;2023-04-03T11:00:52;5.32;;;3.20;;
13795;SDS011;40911;51.552;9.874;2023-04-03T11:03:23;8.10;;;3.08;;
13795;SDS011;40911;51.552;9.874;2023-04-03T11:05:52;2.92;;;2.65;;
13795;SDS011;40911;51.552;9.874;2023-04-03T11:08:19;4.65;;;3.00;;
13795;SDS011;40911;51.552;9.874;2023-04-03T11:10:48;4.38;;;2.83;;
13795;SDS011;40911;51.552;9.874;2023-04-03T11:13:13;3.55;;;2.70;;
13795;SDS011;40911;51.552;9.874;2023-04-03T11:15:37;6.28;;;3.38;;
13795;SDS011;40911;51.552;9.874;2023-04-03T11:20:23;3.40;;;2.70;;
13795;SDS011;40911;51.552;9.874;2023-04-03T11:22:53;2.53;;;2.33;;
13795;SDS011;40911;51.552;9.874;2023-04-03T11:25:20;2.65;;;2.45;;
13795;SDS011;40911;51.552;9.874;2023-04-03T11:27:45;4.57;;;2.60;;
13795;SDS011;40911;51.552;9.874;2023-04-03T11:30:14;4.47;;;2.20;;
13795;SDS011;40911;51.552;9.874;2023-04-03T11:32:44;2.38;;;2.17;;
13795;SDS011;40911;51.552;9.874;2023-04-03T11:35:18;5.20;;;2.33;;
13795;SDS011;40911;51.552;9.874;2023-04-03T11:37:41;2.88;;;2.35;;
13795;SDS011;40911;51.552;9.874;2023-04-03T11:40:07;3.92;;;2.40;;
13795;SDS011;40911;51.552;9.874;2023-04-03T11:42:42;5.90;;;2.53;;
13795;SDS011;40911;51.552;9.874;2023-04-03T11:45:26;4.50;;;2.35;;
13795;SDS011;40911;51.552;9.874;2023-04-03T11:47:54;2.55;;;2.35;;
13795;SDS011;40911;51.552;9.874;2023-04-03T11:50:30;4.72;;;2.60;;
13795;SDS011;40911;51.552;9.874;2023-04-03T11:53:09;4.22;;;2.55;;
13795;SDS011;40911;51.552;9.874;2023-04-03T11:55:54;3.15;;;2.60;;
13795;SDS011;40911;51.552;9.874;2023-04-03T12:01:45;2.72;;;2.22;;
13795;SDS011;40911;51.552;9.874;2023-04-03T12:04:08;3.58;;;2.50;;
13795;SDS011;40911;51.552;9.874;2023-04-03T12:12:24;6.25;;;3.08;;
13795;SDS011;40911;51.552;9.874;2023-04-03T12:14:52;3.63;;;2.97;;
13795;SDS011;40911;51.552;9.874;2023-04-03T12:17:18;3.30;;;2.60;;
13795;SDS011;40911;51.552;9.874;2023-04-03T12:19:43;4.53;;;2.30;;
13795;SDS011;40911;51.552;9.874;2023-04-03T12:22:08;3.38;;;2.22;;
13795;SDS011;40911;51.552;9.874;2023-04-03T12:24:40;2.70;;;2.47;;
13795;SDS011;40911;51.552;9.874;2023-04-03T12:27:25;3.95;;;2.95;;
13795;SDS011;40911;51.552;9.874;2023-04-03T12:29:55;4.35;;;2.53;;
13795;SDS011;40911;51.552;9.874;2023-04-03T12:32:26;11.20;;;3.45;;
13795;SDS011;40911;51.552;9.874;2023-04-03T12:35:03;5.50;;;2.90;;
13795;SDS011;40911;51.552;9.874;2023-04-03T12:37:39;5.88;;;3.17;;
13795;SDS011;40911;51.552;9.874;2023-04-03T12:40:10;2.97;;;2.60;;
13795;SDS011;40911;51.552;9.874;2023-04-03T12:42:47;2.72;;;2.40;;
13795;SDS011;40911;51.552;9.874;2023-04-03T12:45:24;4.82;;;2.42;;
13795;SDS011;40911;51.552;9.874;2023-04-03T12:47:48;4.05;;;2.42;;
13795;SDS011;40911;51.552;9.874;2023-04-03T12:50:16;3.28;;;2.50;;
13795;SDS011;40911;51.552;9.874;2023-04-03T12:52:44;2.97;;;2.40;;
13795;SDS011;40911;51.552;9.874;2023-04-03T12:55:14;2.88;;;2.58;;
13795;SDS011;40911;51.552;9.874;2023-04-03T12:57:39;2.75;;;2.55;;
13795;SDS011;40911;51.552;9.874;2023-04-03T13:00:03;2.40;;;2.20;;
13795;SDS011;40911;51.552;9.874;2023-04-03T13:02:43;3.20;;;2.40;;
13795;SDS011;40911;51.552;9.874;2023-04-03T13:05:07;5.43;;;2.53;;
13795;SDS011;40911;51.552;9.874;2023-04-03T13:07:31;3.92;;;2.50;;
13795;SDS011;40911;51.552;9.874;2023-04-03T13:09:55;2.88;;;2.25;;
13795;SDS011;40911;51.552;9.874;2023-04-03T13:12:19;3.80;;;2.20;;
13795;SDS011;40911;51.552;9.874;2023-04-03T13:14:48;3.53;;;2.40;;
13795;SDS011;40911;51.552;9.874;2023-04-03T13:17:14;2.95;;;2.20;;
13795;SDS011;40911;51.552;9.874;2023-04-03T13:19:37;3.70;;;2.22;;
13795;SDS011;40911;51.552;9.874;2023-04-03T13:22:01;3.33;;;2.22;;
13795;SDS011;40911;51.552;9.874;2023-04-03T13:24:25;6.05;;;2.42;;
13795;SDS011;40911;51.552;9.874;2023-04-03T13:26:47;4.32;;;2.72;;
13795;SDS011;40911;51.552;9.874;2023-04-03T13:29:19;3.63;;;2.75;;
13795;SDS011;40911;51.552;9.874;2023-04-03T13:31:43;4.88;;;2.60;;
13795;SDS011;40911;51.552;9.874;2023-04-03T13:36:32;2.50;;;2.30;;
13795;SDS011;40911;51.552;9.874;2023-04-03T13:39:00;4.05;;;2.72;;
13795;SDS011;40911;51.552;9.874;2023-04-03T13:41:26;4.00;;;2.40;;
13795;SDS011;40911;51.552;9.874;2023-04-03T13:43:51;4.13;;;2.60;;
13795;SDS011;40911;51.552;9.874;2023-04-03T13:46:22;4.72;;;2.85;;
13795;SDS011;40911;51.552;9.874;2023-04-03T13:48:46;3.95;;;2.60;;
13795;SDS011;40911;51.552;9.874;2023-04-03T13:51:18;4.03;;;2.47;;
13795;SDS011;40911;51.552;9.874;2023-04-03T13:53:44;3.10;;;2.80;;
13795;SDS011;40911;51.552;9.874;2023-04-03T13:56:09;2.75;;;2.40;;
13795;SDS011;40911;51.552;9.874;2023-04-03T13:58:37;3.50;;;2.40;;
13795;SDS011;40911;51.552;9.874;2023-04-03T14:01:00;4.60;;;2.67;;
13795;SDS011;40911;51.552;9.874;2023-04-03T14:03:29;4.72;;;2.33;;
13795;SDS011;40911;51.552;9.874;2023-04-03T14:05:52;4.18;;;2.78;;
13795;SDS011;40911;51.552;9.874;2023-04-03T14:08:16;2.33;;;2.20;;
13795;SDS011;40911;51.552;9.874;2023-04-03T14:10:38;4.72;;;2.45;;
13795;SDS011;40911;51.552;9.874;2023-04-03T14:13:00;2.88;;;2.28;;
13795;SDS011;40911;51.552;9.874;2023-04-03T14:15:23;2.92;;;2.63;;
13795;SDS011;40911;51.552;9.874;2023-04-03T14:17:47;4.50;;;2.55;;
13795;SDS011;40911;51.552;9.874;2023-04-03T14:20:10;2.60;;;2.20;;
13795;SDS011;40911;51.552;9.874;2023-04-03T14:22:35;5.60;;;3.00;;
13795;SDS011;40911;51.552;9.874;2023-04-03T14:24:58;3.70;;;2.17;;
13795;SDS011;40911;51.552;9.874;2023-04-03T14:27:21;2.88;;;2.50;;
13795;SDS011;40911;51.552;9.874;2023-04-03T14:29:43;4.30;;;2.45;;
13795;SDS011;40911;51.552;9.874;2023-04-03T14:34:26;3.88;;;2.47;;
13795;SDS011;40911;51.552;9.874;2023-04-03T14:36:48;4.07;;;2.90;;
13795;SDS011;40911;51.552;9.874;2023-04-03T14:39:15;7.25;;;2.63;;
13795;SDS011;40911;51.552;9.874;2023-04-03T14:41:40;2.45;;;2.25;;
13795;SDS011;40911;51.552;9.874;2023-04-03T14:44:02;3.80;;;2.85;;
13795;SDS011;40911;51.552;9.874;2023-04-03T14:46:26;2.47;;;2.28;;
13795;SDS011;40911;51.552;9.874;2023-04-03T14:48:50;4.70;;;2.22;;
13795;SDS011;40911;51.552;9.874;2023-04-03T14:51:12;4.40;;;2.55;;
13795;SDS011;40911;51.552;9.874;2023-04-03T14:53:34;3.55;;;2.22;;
13795;SDS011;40911;51.552;9.874;2023-04-03T14:55:56;2.85;;;2.47;;
13795;SDS011;40911;51.552;9.874;2023-04-03T14:58:20;2.55;;;2.33;;
13795;SDS011;40911;51.552;9.874;2023-04-03T15:00:42;2.35;;;2.10;;
13795;SDS011;40911;51.552;9.874;2023-04-03T15:03:04;4.28;;;2.20;;
13795;SDS011;40911;51.552;9.874;2023-04-03T15:05:26;4.20;;;2.47;;
13795;SDS011;40911;51.552;9.874;2023-04-03T15:07:48;2.65;;;2.22;;
13795;SDS011;40911;51.552;9.874;2023-04-03T15:10:14;4.75;;;2.72;;
13795;SDS011;40911;51.552;9.874;2023-04-03T15:12:38;5.85;;;2.40;;
13795;SDS011;40911;51.552;9.874;2023-04-03T15:15:01;4.45;;;2.50;;
13795;SDS011;40911;51.552;9.874;2023-04-03T15:17:23;3.40;;;2.50;;
13795;SDS011;40911;51.552;9.874;2023-04-03T15:19:46;2.53;;;2.40;;
13795;SDS011;40911;51.552;9.874;2023-04-03T15:22:08;4.50;;;2.40;;
13795;SDS011;40911;51.552;9.874;2023-04-03T15:24:34;3.28;;;2.55;;
13795;SDS011;40911;51.552;9.874;2023-04-03T15:26:56;3.70;;;2.72;;
13795;SDS011;40911;51.552;9.874;2023-04-03T15:29:17;4.25;;;2.67;;
13795;SDS011;40911;51.552;9.874;2023-04-03T15:31:40;4.18;;;2.30;;
13795;SDS011;40911;51.552;9.874;2023-04-03T15:34:02;3.92;;;2.50;;
13795;SDS011;40911;51.552;9.874;2023-04-03T15:36:24;2.97;;;2.65;;
13795;SDS011;40911;51.552;9.874;2023-04-03T15:38:45;5.15;;;2.53;;
13795;SDS011;40911;51.552;9.874;2023-04-03T15:41:07;3.15;;;2.83;;
13795;SDS011;40911;51.552;9.874;2023-04-03T15:43:28;4.35;;;2.97;;